sensor_id;sensor_type;location;lat;lon;timestamp;temperature;humidity
5118;DHT22;2578;51.622;7.046;2024-02-21T00:01:44;9.10;99.90
5118;DHT22;2578;51.622;7.046;2024-02-21T00:04:10;9.10;99.90
5118;DHT22;2578;51.622;7.046;2024-02-21T00:06:35;9.10;99.90
5118;DHT22;2578;51.622;7.046;2024-02-21T00:09:01;9.20;99.90
5118;DHT22;2578;51.622;7.046;2024-02-21T00:11:26;9.10;99.90
5118;DHT22;2578;51.622;7.046;2024-02-21T00:13:52;9.10;99.90
5118;DHT22;2578;51.622;7.046;2024-02-21T00:16:17;9.10;99.90
5118;DHT22;2578;51.622;7.046;2024-02-21T00:18:43;9.20;99.90
5118;DHT22;2578;51.622;7.046;2024-02-21T00:21:09;9.90;99.90
5118;DHT22;2578;51.622;7.046;2024-02-21T00:23:40;9.20;99.90
5118;DHT22;2578;51.622;7.046;2024-02-21T00:26:06;9.20;99.90
5118;DHT22;2578;51.622;7.046;2024-02-21T00:28:31;9.70;99.90
5118;DHT22;2578;51.622;7.046;2024-02-21T00:30:57;9.60;99.90
5118;DHT22;2578;51.622;7.046;2024-02-21T00:33:22;9.10;99.90
5118;DHT22;2578;51.622;7.046;2024-02-21T00:35:48;11.00;99.90
5118;DHT22;2578;51.622;7.046;2024-02-21T00:38:14;10.10;99.90
5118;DHT22;2578;51.622;7.046;2024-02-21T00:40:39;9.10;99.90
5118;DHT22;2578;51.622;7.046;2024-02-21T00:43:05;9.20;99.90
5118;DHT22;2578;51.622;7.046;2024-02-21T00:45:30;9.20;99.90
5118;DHT22;2578;51.622;7.046;2024-02-21T00:47:56;9.10;99.90
5118;DHT22;2578;51.622;7.046;2024-02-21T00:50:21;9.30;99.90
5118;DHT22;2578;51.622;7.046;2024-02-21T00:52:47;9.00;99.90
5118;DHT22;2578;51.622;7.046;2024-02-21T00:55:14;9.00;99.90
5118;DHT22;2578;51.622;7.046;2024-02-21T00:57:39;9.00;99.90
5118;DHT22;2578;51.622;7.046;2024-02-21T01:00:05;9.00;99.90
5118;DHT22;2578;51.622;7.046;2024-02-21T01:04:57;9.00;99.90
5118;DHT22;2578;51.622;7.046;2024-02-21T01:07:23;9.00;99.90
5118;DHT22;2578;51.622;7.046;2024-02-21T01:09:49;9.00;99.90
5118;DHT22;2578;51.622;7.046;2024-02-21T01:12:16;9.10;99.90
5118;DHT22;2578;51.622;7.046;2024-02-21T01:14:42;9.10;99.90
5118;DHT22;2578;51.622;7.046;2024-02-21T01:17:07;9.10;99.90
5118;DHT22;2578;51.622;7.046;2024-02-21T01:19:33;9.20;99.90
5118;DHT22;2578;51.622;7.046;2024-02-21T01:21:59;9.10;99.90
5118;DHT22;2578;51.622;7.046;2024-02-21T01:24:25;9.00;99.90
5118;DHT22;2578;51.622;7.046;2024-02-21T01:26:51;9.00;99.90
5118;DHT22;2578;51.622;7.046;2024-02-21T01:29:16;8.30;99.90
5118;DHT22;2578;51.622;7.046;2024-02-21T01:31:42;9.00;99.90
5118;DHT22;2578;51.622;7.046;2024-02-21T01:34:08;9.00;99.90
5118;DHT22;2578;51.622;7.046;2024-02-21T01:36:34;9.00;99.90
5118;DHT22;2578;51.622;7.046;2024-02-21T01:38:59;9.00;99.90
5118;DHT22;2578;51.622;7.046;2024-02-21T01:41:25;9.10;99.90
5118;DHT22;2578;51.622;7.046;2024-02-21T01:43:50;9.00;99.90
5118;DHT22;2578;51.622;7.046;2024-02-21T01:46:16;9.10;99.90
5118;DHT22;2578;51.622;7.046;2024-02-21T01:48:42;7.50;99.90
5118;DHT22;2578;51.622;7.046;2024-02-21T01:51:08;9.10;99.90
5118;DHT22;2578;51.622;7.046;2024-02-21T01:53:37;9.10;99.90
5118;DHT22;2578;51.622;7.046;2024-02-21T01:56:05;9.10;99.90
5118;DHT22;2578;51.622;7.046;2024-02-21T01:58:32;9.10;99.90
5118;DHT22;2578;51.622;7.046;2024-02-21T02:00:59;9.10;99.90
5118;DHT22;2578;51.622;7.046;2024-02-21T02:03:25;9.10;99.90
5118;DHT22;2578;51.622;7.046;2024-02-21T02:05:51;9.10;99.90
5118;DHT22;2578;51.622;7.046;2024-02-21T02:08:19;10.70;99.90
5118;DHT22;2578;51.622;7.046;2024-02-21T02:10:45;9.10;99.90
5118;DHT22;2578;51.622;7.046;2024-02-21T02:13:13;9.10;99.90
5118;DHT22;2578;51.622;7.046;2024-02-21T02:15:43;9.10;99.90
5118;DHT22;2578;51.622;7.046;2024-02-21T02:18:10;9.20;99.90
5118;DHT22;2578;51.622;7.046;2024-02-21T02:20:36;9.20;99.90
5118;DHT22;2578;51.622;7.046;2024-02-21T02:23:12;9.10;99.90
5118;DHT22;2578;51.622;7.046;2024-02-21T02:25:39;9.10;99.90
5118;DHT22;2578;51.622;7.046;2024-02-21T02:28:06;9.00;99.90
5118;DHT22;2578;51.622;7.046;2024-02-21T02:30:33;9.00;99.90
5118;DHT22;2578;51.622;7.046;2024-02-21T02:32:59;8.90;99.90
5118;DHT22;2578;51.622;7.046;2024-02-21T02:35:25;8.90;99.90
5118;DHT22;2578;51.622;7.046;2024-02-21T02:37:50;8.90;99.90
5118;DHT22;2578;51.622;7.046;2024-02-21T02:40:17;8.80;99.90
5118;DHT22;2578;51.622;7.046;2024-02-21T02:42:43;8.90;99.90
5118;DHT22;2578;51.622;7.046;2024-02-21T02:45:09;8.90;99.90
5118;DHT22;2578;51.622;7.046;2024-02-21T02:47:35;8.90;99.90
5118;DHT22;2578;51.622;7.046;2024-02-21T02:50:01;8.80;99.90
5118;DHT22;2578;51.622;7.046;2024-02-21T02:52:26;8.80;99.90
5118;DHT22;2578;51.622;7.046;2024-02-21T02:54:52;8.80;99.90
5118;DHT22;2578;51.622;7.046;2024-02-21T02:57:20;9.50;99.90
5118;DHT22;2578;51.622;7.046;2024-02-21T02:59:50;8.80;99.90
5118;DHT22;2578;51.622;7.046;2024-02-21T03:02:16;8.80;99.90
5118;DHT22;2578;51.622;7.046;2024-02-21T03:04:42;8.80;99.90
5118;DHT22;2578;51.622;7.046;2024-02-21T03:07:08;8.90;99.90
5118;DHT22;2578;51.622;7.046;2024-02-21T03:09:34;8.90;99.90
5118;DHT22;2578;51.622;7.046;2024-02-21T03:11:59;8.90;99.90
5118;DHT22;2578;51.622;7.046;2024-02-21T03:14:31;8.90;99.90
5118;DHT22;2578;51.622;7.046;2024-02-21T03:16:58;9.30;99.90
5118;DHT22;2578;51.622;7.046;2024-02-21T03:19:24;8.90;99.90
5118;DHT22;2578;51.622;7.046;2024-02-21T03:21:49;8.90;99.90
5118;DHT22;2578;51.622;7.046;2024-02-21T03:24:18;8.90;99.90
5118;DHT22;2578;51.622;7.046;2024-02-21T03:26:44;8.90;99.90
5118;DHT22;2578;51.622;7.046;2024-02-21T03:29:11;8.90;99.90
5118;DHT22;2578;51.622;7.046;2024-02-21T03:31:37;8.90;99.90
5118;DHT22;2578;51.622;7.046;2024-02-21T03:34:03;8.90;99.90
5118;DHT22;2578;51.622;7.046;2024-02-21T03:36:29;9.20;99.90
5118;DHT22;2578;51.622;7.046;2024-02-21T03:38:55;9.00;99.90
5118;DHT22;2578;51.622;7.046;2024-02-21T03:41:21;9.00;99.90
5118;DHT22;2578;51.622;7.046;2024-02-21T03:43:47;9.00;99.90
5118;DHT22;2578;51.622;7.046;2024-02-21T03:46:12;9.00;99.90
5118;DHT22;2578;51.622;7.046;2024-02-21T03:48:38;9.00;99.90
5118;DHT22;2578;51.622;7.046;2024-02-21T03:51:04;9.00;99.90
5118;DHT22;2578;51.622;7.046;2024-02-21T03:53:30;8.90;99.90
5118;DHT22;2578;51.622;7.046;2024-02-21T03:55:55;8.90;99.90
5118;DHT22;2578;51.622;7.046;2024-02-21T03:58:21;8.90;99.90
5118;DHT22;2578;51.622;7.046;2024-02-21T04:00:47;8.90;99.90
5118;DHT22;2578;51.622;7.046;2024-02-21T04:03:13;8.90;99.90
5118;DHT22;2578;51.622;7.046;2024-02-21T04:05:39;8.90;99.90
5118;DHT22;2578;51.622;7.046;2024-02-21T04:08:05;8.90;99.90
5118;DHT22;2578;51.622;7.046;2024-02-21T04:10:31;9.00;99.90
5118;DHT22;2578;51.622;7.046;2024-02-21T04:12:56;9.00;99.90
5118;DHT22;2578;51.622;7.046;2024-02-21T04:15:22;9.00;99.90
5118;DHT22;2578;51.622;7.046;2024-02-21T04:17:48;9.00;99.90
5118;DHT22;2578;51.622;7.046;2024-02-21T04:20:15;9.00;99.90
5118;DHT22;2578;51.622;7.046;2024-02-21T04:22:44;9.00;99.90
5118;DHT22;2578;51.622;7.046;2024-02-21T04:25:10;9.00;99.90
5118;DHT22;2578;51.622;7.046;2024-02-21T04:27:37;9.00;99.90
5118;DHT22;2578;51.622;7.046;2024-02-21T04:30:03;9.00;99.90
5118;DHT22;2578;51.622;7.046;2024-02-21T04:32:29;9.00;99.90
5118;DHT22;2578;51.622;7.046;2024-02-21T04:34:55;9.00;99.90
5118;DHT22;2578;51.622;7.046;2024-02-21T04:37:20;9.10;99.90
5118;DHT22;2578;51.622;7.046;2024-02-21T04:39:46;9.00;99.90
5118;DHT22;2578;51.622;7.046;2024-02-21T04:42:12;9.60;99.90
5118;DHT22;2578;51.622;7.046;2024-02-21T04:44:38;8.90;99.90
5118;DHT22;2578;51.622;7.046;2024-02-21T04:47:03;8.90;99.90
5118;DHT22;2578;51.622;7.046;2024-02-21T04:49:29;8.80;99.90
5118;DHT22;2578;51.622;7.046;2024-02-21T04:51:55;8.90;99.90
5118;DHT22;2578;51.622;7.046;2024-02-21T04:54:21;8.90;99.90
5118;DHT22;2578;51.622;7.046;2024-02-21T04:56:46;8.90;99.90
5118;DHT22;2578;51.622;7.046;2024-02-21T04:59:12;8.80;99.90
5118;DHT22;2578;51.622;7.046;2024-02-21T05:01:37;8.80;99.90
5118;DHT22;2578;51.622;7.046;2024-02-21T05:04:03;8.90;99.90
5118;DHT22;2578;51.622;7.046;2024-02-21T05:06:28;8.80;99.90
5118;DHT22;2578;51.622;7.046;2024-02-21T05:08:54;9.40;99.90
5118;DHT22;2578;51.622;7.046;2024-02-21T05:11:21;8.80;99.90
5118;DHT22;2578;51.622;7.046;2024-02-21T05:13:47;8.80;99.90
5118;DHT22;2578;51.622;7.046;2024-02-21T05:16:12;8.80;99.90
5118;DHT22;2578;51.622;7.046;2024-02-21T05:18:38;8.80;99.90
5118;DHT22;2578;51.622;7.046;2024-02-21T05:21:05;8.80;99.90
5118;DHT22;2578;51.622;7.046;2024-02-21T05:23:30;8.80;99.90
5118;DHT22;2578;51.622;7.046;2024-02-21T05:25:56;9.40;99.90
5118;DHT22;2578;51.622;7.046;2024-02-21T05:28:22;9.40;99.90
5118;DHT22;2578;51.622;7.046;2024-02-21T05:30:47;8.80;99.90
5118;DHT22;2578;51.622;7.046;2024-02-21T05:33:13;8.80;99.90
5118;DHT22;2578;51.622;7.046;2024-02-21T05:35:46;8.80;99.90
5118;DHT22;2578;51.622;7.046;2024-02-21T05:38:12;9.30;99.90
5118;DHT22;2578;51.622;7.046;2024-02-21T05:40:37;8.80;99.90
5118;DHT22;2578;51.622;7.046;2024-02-21T05:43:03;8.80;99.90
5118;DHT22;2578;51.622;7.046;2024-02-21T05:45:29;8.80;99.90
5118;DHT22;2578;51.622;7.046;2024-02-21T05:47:54;8.70;99.90
5118;DHT22;2578;51.622;7.046;2024-02-21T05:50:20;8.80;99.90
5118;DHT22;2578;51.622;7.046;2024-02-21T05:52:47;8.80;99.90
5118;DHT22;2578;51.622;7.046;2024-02-21T05:55:12;9.40;99.90
5118;DHT22;2578;51.622;7.046;2024-02-21T05:57:38;8.80;99.90
5118;DHT22;2578;51.622;7.046;2024-02-21T06:00:05;8.80;99.90
5118;DHT22;2578;51.622;7.046;2024-02-21T06:02:30;8.80;99.90
5118;DHT22;2578;51.622;7.046;2024-02-21T06:04:56;8.80;99.90
5118;DHT22;2578;51.622;7.046;2024-02-21T06:07:22;8.80;99.90
5118;DHT22;2578;51.622;7.046;2024-02-21T06:09:47;8.70;99.90
5118;DHT22;2578;51.622;7.046;2024-02-21T06:12:13;8.70;99.90
5118;DHT22;2578;51.622;7.046;2024-02-21T06:14:38;8.70;99.90
5118;DHT22;2578;51.622;7.046;2024-02-21T06:17:04;8.70;99.90
5118;DHT22;2578;51.622;7.046;2024-02-21T06:19:30;8.70;99.90
5118;DHT22;2578;51.622;7.046;2024-02-21T06:21:55;8.70;99.90
5118;DHT22;2578;51.622;7.046;2024-02-21T06:24:21;8.70;99.90
5118;DHT22;2578;51.622;7.046;2024-02-21T06:26:47;8.70;99.90
5118;DHT22;2578;51.622;7.046;2024-02-21T06:29:12;8.80;99.90
5118;DHT22;2578;51.622;7.046;2024-02-21T06:31:39;8.80;99.90
5118;DHT22;2578;51.622;7.046;2024-02-21T06:34:05;8.70;99.90
5118;DHT22;2578;51.622;7.046;2024-02-21T06:36:31;8.70;99.90
5118;DHT22;2578;51.622;7.046;2024-02-21T06:38:57;8.70;99.90
5118;DHT22;2578;51.622;7.046;2024-02-21T06:41:22;8.80;99.90
5118;DHT22;2578;51.622;7.046;2024-02-21T06:43:48;8.70;99.90
5118;DHT22;2578;51.622;7.046;2024-02-21T06:46:27;8.70;99.90
5118;DHT22;2578;51.622;7.046;2024-02-21T06:48:54;8.70;99.90
5118;DHT22;2578;51.622;7.046;2024-02-21T06:51:22;8.70;99.90
5118;DHT22;2578;51.622;7.046;2024-02-21T06:53:48;8.70;99.90
5118;DHT22;2578;51.622;7.046;2024-02-21T06:56:13;10.00;99.90
5118;DHT22;2578;51.622;7.046;2024-02-21T06:58:39;8.80;99.90
5118;DHT22;2578;51.622;7.046;2024-02-21T07:01:05;8.80;99.90
5118;DHT22;2578;51.622;7.046;2024-02-21T07:03:30;8.80;99.90
5118;DHT22;2578;51.622;7.046;2024-02-21T07:05:56;8.80;99.90
5118;DHT22;2578;51.622;7.046;2024-02-21T07:08:21;8.80;99.90
5118;DHT22;2578;51.622;7.046;2024-02-21T07:10:47;8.80;99.90
5118;DHT22;2578;51.622;7.046;2024-02-21T07:13:12;8.90;99.90
5118;DHT22;2578;51.622;7.046;2024-02-21T07:15:39;8.90;99.90
5118;DHT22;2578;51.622;7.046;2024-02-21T07:18:05;8.90;99.90
5118;DHT22;2578;51.622;7.046;2024-02-21T07:20:30;8.90;99.90
5118;DHT22;2578;51.622;7.046;2024-02-21T07:22:59;8.90;99.90
5118;DHT22;2578;51.622;7.046;2024-02-21T07:25:24;9.00;99.90
5118;DHT22;2578;51.622;7.046;2024-02-21T07:27:50;8.90;99.90
5118;DHT22;2578;51.622;7.046;2024-02-21T07:30:16;8.90;99.90
5118;DHT22;2578;51.622;7.046;2024-02-21T07:32:41;9.00;99.90
5118;DHT22;2578;51.622;7.046;2024-02-21T07:35:07;9.00;99.90
5118;DHT22;2578;51.622;7.046;2024-02-21T07:37:36;9.00;99.90
5118;DHT22;2578;51.622;7.046;2024-02-21T07:40:06;9.10;99.90
5118;DHT22;2578;51.622;7.046;2024-02-21T07:42:31;9.10;99.90
5118;DHT22;2578;51.622;7.046;2024-02-21T07:44:57;9.10;99.90
5118;DHT22;2578;51.622;7.046;2024-02-21T07:47:22;9.10;99.90
5118;DHT22;2578;51.622;7.046;2024-02-21T07:49:48;9.20;99.90
5118;DHT22;2578;51.622;7.046;2024-02-21T07:52:14;9.20;99.90
5118;DHT22;2578;51.622;7.046;2024-02-21T07:54:40;9.20;99.90
5118;DHT22;2578;51.622;7.046;2024-02-21T07:57:07;9.20;99.90
5118;DHT22;2578;51.622;7.046;2024-02-21T07:59:32;9.30;99.90
5118;DHT22;2578;51.622;7.046;2024-02-21T08:01:58;9.30;99.90
5118;DHT22;2578;51.622;7.046;2024-02-21T08:04:24;9.30;99.90
5118;DHT22;2578;51.622;7.046;2024-02-21T08:06:53;10.10;99.90
5118;DHT22;2578;51.622;7.046;2024-02-21T08:09:19;9.40;99.90
5118;DHT22;2578;51.622;7.046;2024-02-21T08:11:45;10.30;99.90
5118;DHT22;2578;51.622;7.046;2024-02-21T08:14:10;9.40;99.90
5118;DHT22;2578;51.622;7.046;2024-02-21T08:16:36;9.40;99.90
5118;DHT22;2578;51.622;7.046;2024-02-21T08:19:01;9.70;99.90
5118;DHT22;2578;51.622;7.046;2024-02-21T08:21:29;9.50;99.90
5118;DHT22;2578;51.622;7.046;2024-02-21T08:23:55;9.50;99.90
5118;DHT22;2578;51.622;7.046;2024-02-21T08:26:20;9.50;99.90
5118;DHT22;2578;51.622;7.046;2024-02-21T08:28:46;9.50;99.90
5118;DHT22;2578;51.622;7.046;2024-02-21T08:31:19;9.50;99.90
5118;DHT22;2578;51.622;7.046;2024-02-21T08:33:45;9.50;99.90
5118;DHT22;2578;51.622;7.046;2024-02-21T08:36:20;9.50;99.90
5118;DHT22;2578;51.622;7.046;2024-02-21T08:38:46;9.60;99.90
5118;DHT22;2578;51.622;7.046;2024-02-21T08:41:11;9.80;99.90
5118;DHT22;2578;51.622;7.046;2024-02-21T08:43:37;9.80;99.90
5118;DHT22;2578;51.622;7.046;2024-02-21T08:46:03;9.80;99.90
5118;DHT22;2578;51.622;7.046;2024-02-21T08:48:29;9.80;99.90
5118;DHT22;2578;51.622;7.046;2024-02-21T08:50:55;9.90;99.90
5118;DHT22;2578;51.622;7.046;2024-02-21T08:55:46;9.90;99.90
5118;DHT22;2578;51.622;7.046;2024-02-21T08:58:12;9.90;99.90
5118;DHT22;2578;51.622;7.046;2024-02-21T09:00:37;9.90;99.90
5118;DHT22;2578;51.622;7.046;2024-02-21T09:03:03;9.90;99.90
5118;DHT22;2578;51.622;7.046;2024-02-21T09:05:29;9.90;99.90
5118;DHT22;2578;51.622;7.046;2024-02-21T09:07:55;10.60;99.90
5118;DHT22;2578;51.622;7.046;2024-02-21T09:10:21;9.90;99.90
5118;DHT22;2578;51.622;7.046;2024-02-21T09:12:46;9.80;99.90
5118;DHT22;2578;51.622;7.046;2024-02-21T09:15:13;9.80;99.90
5118;DHT22;2578;51.622;7.046;2024-02-21T09:17:38;9.70;99.90
5118;DHT22;2578;51.622;7.046;2024-02-21T09:20:05;9.70;99.90
5118;DHT22;2578;51.622;7.046;2024-02-21T09:22:31;9.60;99.90
5118;DHT22;2578;51.622;7.046;2024-02-21T09:25:00;11.70;99.90
5118;DHT22;2578;51.622;7.046;2024-02-21T09:27:26;9.60;99.90
5118;DHT22;2578;51.622;7.046;2024-02-21T09:29:51;9.60;99.90
5118;DHT22;2578;51.622;7.046;2024-02-21T09:32:18;10.40;99.90
5118;DHT22;2578;51.622;7.046;2024-02-21T09:34:44;9.70;99.90
5118;DHT22;2578;51.622;7.046;2024-02-21T09:37:10;9.80;99.90
5118;DHT22;2578;51.622;7.046;2024-02-21T09:39:36;9.80;99.90
5118;DHT22;2578;51.622;7.046;2024-02-21T09:42:11;9.80;99.90
5118;DHT22;2578;51.622;7.046;2024-02-21T09:44:37;10.00;99.90
5118;DHT22;2578;51.622;7.046;2024-02-21T09:47:06;10.00;99.90
5118;DHT22;2578;51.622;7.046;2024-02-21T09:49:34;11.40;99.90
5118;DHT22;2578;51.622;7.046;2024-02-21T09:52:01;10.10;99.90
5118;DHT22;2578;51.622;7.046;2024-02-21T09:54:30;10.20;99.90
5118;DHT22;2578;51.622;7.046;2024-02-21T09:57:02;10.20;99.90
5118;DHT22;2578;51.622;7.046;2024-02-21T09:59:30;10.20;99.90
5118;DHT22;2578;51.622;7.046;2024-02-21T10:01:56;10.20;99.90
5118;DHT22;2578;51.622;7.046;2024-02-21T10:04:23;10.20;99.90
5118;DHT22;2578;51.622;7.046;2024-02-21T10:06:49;10.20;99.90
5118;DHT22;2578;51.622;7.046;2024-02-21T10:11:48;10.20;99.90
5118;DHT22;2578;51.622;7.046;2024-02-21T10:14:15;8.00;99.90
5118;DHT22;2578;51.622;7.046;2024-02-21T10:16:41;9.90;99.90
5118;DHT22;2578;51.622;7.046;2024-02-21T10:19:06;10.00;99.90
5118;DHT22;2578;51.622;7.046;2024-02-21T10:21:32;10.00;99.90
5118;DHT22;2578;51.622;7.046;2024-02-21T10:23:58;10.10;99.90
5118;DHT22;2578;51.622;7.046;2024-02-21T10:26:23;9.90;99.90
5118;DHT22;2578;51.622;7.046;2024-02-21T10:28:49;10.00;99.90
5118;DHT22;2578;51.622;7.046;2024-02-21T10:31:26;9.90;99.90
5118;DHT22;2578;51.622;7.046;2024-02-21T10:33:59;9.90;99.90
5118;DHT22;2578;51.622;7.046;2024-02-21T10:36:25;10.00;99.90
5118;DHT22;2578;51.622;7.046;2024-02-21T10:38:51;10.00;99.90
5118;DHT22;2578;51.622;7.046;2024-02-21T10:41:19;10.50;99.90
5118;DHT22;2578;51.622;7.046;2024-02-21T10:43:53;10.10;99.90
5118;DHT22;2578;51.622;7.046;2024-02-21T10:46:20;10.20;99.90
5118;DHT22;2578;51.622;7.046;2024-02-21T10:48:47;10.20;99.90
5118;DHT22;2578;51.622;7.046;2024-02-21T10:51:16;10.10;99.90
5118;DHT22;2578;51.622;7.046;2024-02-21T10:56:21;10.00;99.90
5118;DHT22;2578;51.622;7.046;2024-02-21T10:58:49;10.00;99.90
5118;DHT22;2578;51.622;7.046;2024-02-21T11:01:15;10.10;99.90
5118;DHT22;2578;51.622;7.046;2024-02-21T11:03:44;10.00;99.90
5118;DHT22;2578;51.622;7.046;2024-02-21T11:06:13;10.00;99.90
5118;DHT22;2578;51.622;7.046;2024-02-21T11:08:40;10.20;99.90
5118;DHT22;2578;51.622;7.046;2024-02-21T11:11:06;10.10;99.90
5118;DHT22;2578;51.622;7.046;2024-02-21T11:13:34;10.40;99.90
5118;DHT22;2578;51.622;7.046;2024-02-21T11:16:10;10.30;99.90
5118;DHT22;2578;51.622;7.046;2024-02-21T11:18:37;10.40;99.90
5118;DHT22;2578;51.622;7.046;2024-02-21T11:21:03;11.30;99.90
5118;DHT22;2578;51.622;7.046;2024-02-21T11:23:30;10.80;99.90
5118;DHT22;2578;51.622;7.046;2024-02-21T11:26:09;11.00;99.90
5118;DHT22;2578;51.622;7.046;2024-02-21T11:28:35;11.00;99.90
5118;DHT22;2578;51.622;7.046;2024-02-21T11:31:08;11.10;99.90
5118;DHT22;2578;51.622;7.046;2024-02-21T11:33:35;11.20;99.90
5118;DHT22;2578;51.622;7.046;2024-02-21T11:36:01;11.30;99.90
5118;DHT22;2578;51.622;7.046;2024-02-21T11:38:29;12.40;99.90
5118;DHT22;2578;51.622;7.046;2024-02-21T11:40:54;11.50;99.90
5118;DHT22;2578;51.622;7.046;2024-02-21T11:43:20;11.70;99.90
5118;DHT22;2578;51.622;7.046;2024-02-21T11:45:45;11.60;98.90
5118;DHT22;2578;51.622;7.046;2024-02-21T11:48:11;11.40;99.90
5118;DHT22;2578;51.622;7.046;2024-02-21T11:50:37;12.10;99.90
5118;DHT22;2578;51.622;7.046;2024-02-21T11:53:04;12.80;95.50
5118;DHT22;2578;51.622;7.046;2024-02-21T11:55:30;11.30;99.90
5118;DHT22;2578;51.622;7.046;2024-02-21T11:57:56;11.30;99.90
5118;DHT22;2578;51.622;7.046;2024-02-21T12:00:22;11.10;99.90
5118;DHT22;2578;51.622;7.046;2024-02-21T12:02:50;11.40;99.90
5118;DHT22;2578;51.622;7.046;2024-02-21T12:05:16;11.40;98.30
5118;DHT22;2578;51.622;7.046;2024-02-21T12:07:42;11.60;99.10
5118;DHT22;2578;51.622;7.046;2024-02-21T12:10:11;11.70;98.80
5118;DHT22;2578;51.622;7.046;2024-02-21T12:12:39;11.70;89.90
5118;DHT22;2578;51.622;7.046;2024-02-21T12:15:06;11.70;95.70
5118;DHT22;2578;51.622;7.046;2024-02-21T12:17:35;11.60;96.10
5118;DHT22;2578;51.622;7.046;2024-02-21T12:20:04;11.60;94.70
5118;DHT22;2578;51.622;7.046;2024-02-21T12:22:35;11.60;92.40
5118;DHT22;2578;51.622;7.046;2024-02-21T12:25:04;11.40;83.30
5118;DHT22;2578;51.622;7.046;2024-02-21T12:27:41;11.30;90.90
5118;DHT22;2578;51.622;7.046;2024-02-21T12:30:07;11.20;75.60
5118;DHT22;2578;51.622;7.046;2024-02-21T12:32:35;11.20;76.00
5118;DHT22;2578;51.622;7.046;2024-02-21T12:35:01;11.20;77.70
5118;DHT22;2578;51.622;7.046;2024-02-21T12:37:28;11.30;73.70
5118;DHT22;2578;51.622;7.046;2024-02-21T12:39:53;11.40;86.70
5118;DHT22;2578;51.622;7.046;2024-02-21T12:42:19;11.40;85.60
5118;DHT22;2578;51.622;7.046;2024-02-21T12:44:44;11.50;72.20
5118;DHT22;2578;51.622;7.046;2024-02-21T12:47:11;11.50;82.40
5118;DHT22;2578;51.622;7.046;2024-02-21T12:49:37;11.70;72.00
5118;DHT22;2578;51.622;7.046;2024-02-21T12:52:03;11.70;82.30
5118;DHT22;2578;51.622;7.046;2024-02-21T12:54:29;11.70;68.70
5118;DHT22;2578;51.622;7.046;2024-02-21T12:56:55;11.70;63.70
5118;DHT22;2578;51.622;7.046;2024-02-21T12:59:21;13.80;68.50
5118;DHT22;2578;51.622;7.046;2024-02-21T13:01:47;11.90;79.30
5118;DHT22;2578;51.622;7.046;2024-02-21T13:04:12;11.70;57.10
5118;DHT22;2578;51.622;7.046;2024-02-21T13:06:38;11.60;66.80
5118;DHT22;2578;51.622;7.046;2024-02-21T13:09:03;13.10;69.80
5118;DHT22;2578;51.622;7.046;2024-02-21T13:11:34;11.80;54.20
5118;DHT22;2578;51.622;7.046;2024-02-21T13:13:59;11.90;52.60
5118;DHT22;2578;51.622;7.046;2024-02-21T13:16:25;11.90;51.50
5118;DHT22;2578;51.622;7.046;2024-02-21T13:18:51;11.90;63.40
5118;DHT22;2578;51.622;7.046;2024-02-21T13:21:17;12.20;51.50
5118;DHT22;2578;51.622;7.046;2024-02-21T13:23:42;12.20;51.50
5118;DHT22;2578;51.622;7.046;2024-02-21T13:26:10;12.30;53.70
5118;DHT22;2578;51.622;7.046;2024-02-21T13:28:35;12.20;60.20
5118;DHT22;2578;51.622;7.046;2024-02-21T13:31:01;12.30;47.60
5118;DHT22;2578;51.622;7.046;2024-02-21T13:33:28;12.20;46.20
5118;DHT22;2578;51.622;7.046;2024-02-21T13:35:54;12.30;45.60
5118;DHT22;2578;51.622;7.046;2024-02-21T13:38:19;12.70;53.80
5118;DHT22;2578;51.622;7.046;2024-02-21T13:40:45;12.30;46.80
5118;DHT22;2578;51.622;7.046;2024-02-21T13:43:11;12.20;42.80
5118;DHT22;2578;51.622;7.046;2024-02-21T13:45:38;12.20;51.10
5118;DHT22;2578;51.622;7.046;2024-02-21T13:48:04;12.40;47.40
5118;DHT22;2578;51.622;7.046;2024-02-21T13:50:32;12.10;49.30
5118;DHT22;2578;51.622;7.046;2024-02-21T13:52:58;11.70;35.40
5118;DHT22;2578;51.622;7.046;2024-02-21T13:55:23;11.80;33.20
5118;DHT22;2578;51.622;7.046;2024-02-21T13:57:51;11.80;43.30
5118;DHT22;2578;51.622;7.046;2024-02-21T14:00:17;11.80;34.30
5118;DHT22;2578;51.622;7.046;2024-02-21T14:02:43;11.80;36.00
5118;DHT22;2578;51.622;7.046;2024-02-21T14:05:10;11.70;40.60
5118;DHT22;2578;51.622;7.046;2024-02-21T14:07:35;11.90;31.00
5118;DHT22;2578;51.622;7.046;2024-02-21T14:10:01;11.90;28.00
5118;DHT22;2578;51.622;7.046;2024-02-21T14:12:27;11.80;30.60
5118;DHT22;2578;51.622;7.046;2024-02-21T14:14:52;11.80;29.20
5118;DHT22;2578;51.622;7.046;2024-02-21T14:17:18;14.90;39.40
5118;DHT22;2578;51.622;7.046;2024-02-21T14:19:45;11.90;34.90
5118;DHT22;2578;51.622;7.046;2024-02-21T14:22:11;12.50;33.50
5118;DHT22;2578;51.622;7.046;2024-02-21T14:24:37;11.90;25.30
5118;DHT22;2578;51.622;7.046;2024-02-21T14:27:02;11.90;34.30
5118;DHT22;2578;51.622;7.046;2024-02-21T14:29:29;11.90;31.00
5118;DHT22;2578;51.622;7.046;2024-02-21T14:31:54;12.00;24.90
5118;DHT22;2578;51.622;7.046;2024-02-21T14:34:20;11.90;23.50
5118;DHT22;2578;51.622;7.046;2024-02-21T14:36:45;12.20;33.50
5118;DHT22;2578;51.622;7.046;2024-02-21T14:39:11;12.00;22.10
5118;DHT22;2578;51.622;7.046;2024-02-21T14:41:37;11.90;29.70
5118;DHT22;2578;51.622;7.046;2024-02-21T14:44:02;12.10;22.90
5118;DHT22;2578;51.622;7.046;2024-02-21T14:46:28;12.10;29.50
5118;DHT22;2578;51.622;7.046;2024-02-21T14:48:57;12.10;28.00
5118;DHT22;2578;51.622;7.046;2024-02-21T14:51:23;12.10;28.20
5118;DHT22;2578;51.622;7.046;2024-02-21T14:53:49;12.00;20.30
5118;DHT22;2578;51.622;7.046;2024-02-21T14:56:15;12.00;27.50
5118;DHT22;2578;51.622;7.046;2024-02-21T14:58:41;11.80;25.00
5118;DHT22;2578;51.622;7.046;2024-02-21T15:01:10;11.80;16.80
5118;DHT22;2578;51.622;7.046;2024-02-21T15:03:35;11.70;16.60
5118;DHT22;2578;51.622;7.046;2024-02-21T15:06:02;11.70;23.90
5118;DHT22;2578;51.622;7.046;2024-02-21T15:08:28;11.70;23.20
5118;DHT22;2578;51.622;7.046;2024-02-21T15:10:54;11.70;14.80
5118;DHT22;2578;51.622;7.046;2024-02-21T15:13:20;11.60;12.80
5118;DHT22;2578;51.622;7.046;2024-02-21T15:15:47;11.50;14.30
5118;DHT22;2578;51.622;7.046;2024-02-21T15:18:14;11.50;19.40
5118;DHT22;2578;51.622;7.046;2024-02-21T15:20:40;11.50;18.70
5118;DHT22;2578;51.622;7.046;2024-02-21T15:23:06;11.30;9.70
5118;DHT22;2578;51.622;7.046;2024-02-21T15:25:32;12.10;17.20
5118;DHT22;2578;51.622;7.046;2024-02-21T15:27:59;11.90;18.20
5118;DHT22;2578;51.622;7.046;2024-02-21T15:30:25;11.20;16.10
5118;DHT22;2578;51.622;7.046;2024-02-21T15:32:50;11.20;8.00
5118;DHT22;2578;51.622;7.046;2024-02-21T15:35:16;12.30;15.80
5118;DHT22;2578;51.622;7.046;2024-02-21T15:37:41;12.50;13.70
5118;DHT22;2578;51.622;7.046;2024-02-21T15:40:07;11.20;13.60
5118;DHT22;2578;51.622;7.046;2024-02-21T15:42:34;11.20;11.80
5118;DHT22;2578;51.622;7.046;2024-02-21T15:44:59;11.20;4.70
5118;DHT22;2578;51.622;7.046;2024-02-21T15:47:32;11.20;3.70
5118;DHT22;2578;51.622;7.046;2024-02-21T15:49:58;11.20;11.60
5118;DHT22;2578;51.622;7.046;2024-02-21T15:52:25;11.90;11.50
5118;DHT22;2578;51.622;7.046;2024-02-21T15:54:52;11.10;2.60
5118;DHT22;2578;51.622;7.046;2024-02-21T15:57:18;11.10;10.40
5118;DHT22;2578;51.622;7.046;2024-02-21T15:59:44;11.00;10.90
5118;DHT22;2578;51.622;7.046;2024-02-21T16:02:10;11.80;8.50
5118;DHT22;2578;51.622;7.046;2024-02-21T16:04:35;11.10;2.20
5118;DHT22;2578;51.622;7.046;2024-02-21T16:07:01;11.10;10.70
5118;DHT22;2578;51.622;7.046;2024-02-21T16:09:30;11.20;8.50
5118;DHT22;2578;51.622;7.046;2024-02-21T16:11:56;11.00;9.10
5118;DHT22;2578;51.622;7.046;2024-02-21T16:14:22;11.00;1.00
5118;DHT22;2578;51.622;7.046;2024-02-21T16:16:48;11.00;8.10